Decoded Metar for KEYW (KEY WEST in FL, USA) (IATA:EYW) | Meteo·Mobile Aviation Weather
aviador You're here:

KEYW Decoded Metar

KEY WEST in FL, USA
Report Time2019-10-18 13:53:00
UTC Time2019-10-18 14:01:44
Flight Rules vfr VFR
Wind150° at 10 kt
W.Decomp.*RWY 09: 4.4 kt HW 9.0 kt RCW
Visibility9999 m
Phenomena:N/A
Clouds:Few 023 Hf
Expected CloudBase > 2,000 ft AGL from Temp-Dew spread
CeilingNone
Temp29°C (ISA +14)
Dew Point24°C (74% RH)
Heat Index33.5°C
QNH1014 hPa
Density Alt1,985 ft
Elevation16 ft
Report Wrong Elevation
Raw Report
METAR KEYW 181353Z 15010KT 10SM FEW023 29/24 A2993 RMK AO2 SLP135
T02940244=

Extra information for KEYW:More info

Metar Taf Metar & Taf Last 4 Metars F.Rules Stats Wind Profile Meteogram Temp Stats Airport Information Weather charts Add Link Nearby VenuesMetar ALERT Operation Metar Decoded Social comments

AIRNAV info for KEYW